sensor_id;sensor_type;location;lat;lon;timestamp;pressure;altitude;pressure_sealevel;temperature;humidity
43838;BME280;65998;46.256;7.534;2023-03-31T00:00:29;86652.84;;;13.08;43.84
43838;BME280;65998;46.256;7.534;2023-03-31T00:03:11;86645.28;;;13.07;43.87
43838;BME280;65998;46.256;7.534;2023-03-31T00:05:40;86650.81;;;13.07;44.00
43838;BME280;65998;46.256;7.534;2023-03-31T00:08:05;86659.75;;;13.07;44.04
43838;BME280;65998;46.256;7.534;2023-03-31T00:10:33;86656.28;;;13.09;43.61
43838;BME280;65998;46.256;7.534;2023-03-31T00:13:00;86651.44;;;13.09;44.02
43838;BME280;65998;46.256;7.534;2023-03-31T00:15:27;86643.88;;;13.08;43.77
43838;BME280;65998;46.256;7.534;2023-03-31T00:17:53;86645.28;;;13.07;43.75
43838;BME280;65998;46.256;7.534;2023-03-31T00:20:19;86643.94;;;13.06;43.73
43838;BME280;65998;46.256;7.534;2023-03-31T00:22:45;86644.66;;;13.04;43.91
43838;BME280;65998;46.256;7.534;2023-03-31T00:25:14;86644.59;;;13.06;43.99
43838;BME280;65998;46.256;7.534;2023-03-31T00:27:44;86641.06;;;13.10;43.80
43838;BME280;65998;46.256;7.534;2023-03-31T00:30:14;86640.44;;;13.07;43.94
43838;BME280;65998;46.256;7.534;2023-03-31T00:32:41;86634.97;;;13.05;43.99
43838;BME280;65998;46.256;7.534;2023-03-31T00:35:07;86630.88;;;13.04;44.00
43838;BME280;65998;46.256;7.534;2023-03-31T00:37:34;86630.16;;;13.06;43.90
43838;BME280;65998;46.256;7.534;2023-03-31T00:40:03;86624.63;;;13.06;43.86
43838;BME280;65998;46.256;7.534;2023-03-31T00:42:30;86619.88;;;13.02;43.97
43838;BME280;65998;46.256;7.534;2023-03-31T00:45:28;86627.28;;;13.10;43.93
43838;BME280;65998;46.256;7.534;2023-03-31T00:48:07;86622.50;;;13.08;43.73
43838;BME280;65998;46.256;7.534;2023-03-31T00:51:03;86608.75;;;13.06;43.69
43838;BME280;65998;46.256;7.534;2023-03-31T00:53:31;86604.59;;;13.07;43.88
43838;BME280;65998;46.256;7.534;2023-03-31T00:56:12;86599.06;;;13.07;44.02
43838;BME280;65998;46.256;7.534;2023-03-31T00:58:40;86585.28;;;13.07;43.88
43838;BME280;65998;46.256;7.534;2023-03-31T01:01:06;86583.34;;;13.02;43.96
43838;BME280;65998;46.256;7.534;2023-03-31T01:03:32;86584.75;;;13.01;43.92
43838;BME280;65998;46.256;7.534;2023-03-31T01:06:03;86583.31;;;13.04;43.77
43838;BME280;65998;46.256;7.534;2023-03-31T01:08:31;86588.16;;;13.03;43.85
43838;BME280;65998;46.256;7.534;2023-03-31T01:11:02;86585.38;;;13.03;43.84
43838;BME280;65998;46.256;7.534;2023-03-31T01:13:29;86577.84;;;13.02;43.88
43838;BME280;65998;46.256;7.534;2023-03-31T01:15:55;86585.50;;;12.99;44.14
43838;BME280;65998;46.256;7.534;2023-03-31T01:18:21;86584.03;;;13.02;43.77
43838;BME280;65998;46.256;7.534;2023-03-31T01:21:04;86590.91;;;13.03;43.94
43838;BME280;65998;46.256;7.534;2023-03-31T01:27:14;86583.31;;;13.04;43.86
43838;BME280;65998;46.256;7.534;2023-03-31T01:29:58;86578.47;;;13.04;43.64
43838;BME280;65998;46.256;7.534;2023-03-31T01:42:08;86571.66;;;13.01;43.94
43838;BME280;65998;46.256;7.534;2023-03-31T01:44:45;86566.97;;;12.96;44.06
43838;BME280;65998;46.256;7.534;2023-03-31T01:47:24;86579.28;;;12.99;44.02
43838;BME280;65998;46.256;7.534;2023-03-31T01:50:10;86575.13;;;13.00;43.88
43838;BME280;65998;46.256;7.534;2023-03-31T01:53:06;86564.78;;;13.00;44.04
43838;BME280;65998;46.256;7.534;2023-03-31T01:55:42;86560.66;;;12.99;44.14
43838;BME280;65998;46.256;7.534;2023-03-31T01:58:31;86559.41;;;12.94;43.90
43838;BME280;65998;46.256;7.534;2023-03-31T02:01:02;86563.41;;;12.99;44.12
43838;BME280;65998;46.256;7.534;2023-03-31T02:03:33;86555.88;;;12.98;44.19
43838;BME280;65998;46.256;7.534;2023-03-31T02:06:18;86543.44;;;12.99;44.05
43838;BME280;65998;46.256;7.534;2023-03-31T02:08:50;86560.66;;;12.99;44.07
43838;BME280;65998;46.256;7.534;2023-03-31T02:11:20;86564.88;;;12.96;43.96
43838;BME280;65998;46.256;7.534;2023-03-31T02:13:48;86570.41;;;12.96;44.10
43838;BME280;65998;46.256;7.534;2023-03-31T02:16:20;86568.31;;;12.97;44.04
43838;BME280;65998;46.256;7.534;2023-03-31T02:18:48;86582.09;;;12.97;43.96
43838;BME280;65998;46.256;7.534;2023-03-31T02:21:16;86566.97;;;12.96;44.00
43838;BME280;65998;46.256;7.534;2023-03-31T02:23:43;86564.19;;;12.96;44.19
43838;BME280;65998;46.256;7.534;2023-03-31T02:26:16;86571.03;;;12.99;44.15
43838;BME280;65998;46.256;7.534;2023-03-31T02:28:44;86567.75;;;12.92;44.23
43838;BME280;65998;46.256;7.534;2023-03-31T02:31:30;86569.66;;;12.98;44.04
43838;BME280;65998;46.256;7.534;2023-03-31T02:34:01;86566.34;;;12.93;43.85
43838;BME280;65998;46.256;7.534;2023-03-31T02:36:28;86573.94;;;12.93;44.14
43838;BME280;65998;46.256;7.534;2023-03-31T02:39:05;86575.19;;;12.98;43.84
43838;BME280;65998;46.256;7.534;2023-03-31T02:41:33;86584.28;;;12.92;44.16
43838;BME280;65998;46.256;7.534;2023-03-31T02:43:59;86589.13;;;12.92;44.15
43838;BME280;65998;46.256;7.534;2023-03-31T02:46:26;86600.84;;;12.92;44.30
43838;BME280;65998;46.256;7.534;2023-03-31T02:48:55;86595.94;;;12.95;44.27
43838;BME280;65998;46.256;7.534;2023-03-31T03:10:54;86553.28;;;12.92;43.98
43838;BME280;65998;46.256;7.534;2023-03-31T03:15:55;86553.31;;;12.90;44.23
43838;BME280;65998;46.256;7.534;2023-03-31T03:18:23;86552.69;;;12.87;44.46
43838;BME280;65998;46.256;7.534;2023-03-31T03:20:49;86558.22;;;12.87;44.04
43838;BME280;65998;46.256;7.534;2023-03-31T03:23:16;86563.72;;;12.87;44.20
43838;BME280;65998;46.256;7.534;2023-03-31T03:25:43;86563.72;;;12.87;44.22
43838;BME280;65998;46.256;7.534;2023-03-31T03:28:09;86582.34;;;12.87;44.10
43838;BME280;65998;46.256;7.534;2023-03-31T03:30:36;86591.31;;;12.87;44.19
43838;BME280;65998;46.256;7.534;2023-03-31T03:33:02;86581.00;;;12.86;44.20
43838;BME280;65998;46.256;7.534;2023-03-31T03:35:28;86565.88;;;12.85;44.12
43838;BME280;65998;46.256;7.534;2023-03-31T03:37:54;86563.09;;;12.85;44.29
43838;BME280;65998;46.256;7.534;2023-03-31T03:40:19;86567.22;;;12.86;43.86
43838;BME280;65998;46.256;7.534;2023-03-31T03:42:45;86563.09;;;12.85;43.97
43838;BME280;65998;46.256;7.534;2023-03-31T03:45:11;86560.34;;;12.85;44.24
43838;BME280;65998;46.256;7.534;2023-03-31T03:47:37;86552.06;;;12.85;44.18
43838;BME280;65998;46.256;7.534;2023-03-31T03:50:06;86540.28;;;12.88;44.01
43838;BME280;65998;46.256;7.534;2023-03-31T03:52:32;86522.47;;;12.83;44.07
43838;BME280;65998;46.256;7.534;2023-03-31T03:54:58;86534.19;;;12.84;44.09
43838;BME280;65998;46.256;7.534;2023-03-31T03:57:24;86549.31;;;12.85;44.00
43838;BME280;65998;46.256;7.534;2023-03-31T03:59:50;86556.25;;;12.84;44.14
43838;BME280;65998;46.256;7.534;2023-03-31T04:02:15;86552.06;;;12.85;44.27
43838;BME280;65998;46.256;7.534;2023-03-31T04:04:41;86554.84;;;12.85;44.18
43838;BME280;65998;46.256;7.534;2023-03-31T04:07:07;86553.47;;;12.84;44.24
43838;BME280;65998;46.256;7.534;2023-03-31T04:09:33;86539.03;;;12.83;44.03
43838;BME280;65998;46.256;7.534;2023-03-31T04:12:02;86545.78;;;12.88;44.23
43838;BME280;65998;46.256;7.534;2023-03-31T04:14:28;86557.59;;;12.85;44.29
43838;BME280;65998;46.256;7.534;2023-03-31T04:16:54;86566.59;;;12.83;43.95
43838;BME280;65998;46.256;7.534;2023-03-31T04:19:19;86563.22;;;12.81;44.04
43838;BME280;65998;46.256;7.534;2023-03-31T04:21:45;86557.66;;;12.83;44.05
43838;BME280;65998;46.256;7.534;2023-03-31T04:24:11;86543.81;;;12.85;44.24
43838;BME280;65998;46.256;7.534;2023-03-31T04:26:38;86533.50;;;12.83;44.14
43838;BME280;65998;46.256;7.534;2023-03-31T04:29:05;86514.81;;;12.86;44.19
43838;BME280;65998;46.256;7.534;2023-03-31T04:31:31;86503.22;;;12.81;44.05
43838;BME280;65998;46.256;7.534;2023-03-31T04:33:57;86495.63;;;12.82;44.24
43838;BME280;65998;46.256;7.534;2023-03-31T04:36:23;86494.97;;;12.81;44.23
43838;BME280;65998;46.256;7.534;2023-03-31T04:38:49;86498.34;;;12.84;44.20
43838;BME280;65998;46.256;7.534;2023-03-31T04:41:16;86494.22;;;12.83;44.03
43838;BME280;65998;46.256;7.534;2023-03-31T04:43:42;86494.97;;;12.81;44.24
43838;BME280;65998;46.256;7.534;2023-03-31T04:46:08;86502.50;;;12.83;44.12
43838;BME280;65998;46.256;7.534;2023-03-31T04:48:34;86486.69;;;12.81;44.22
43838;BME280;65998;46.256;7.534;2023-03-31T04:51:00;86459.13;;;12.81;44.18
43838;BME280;65998;46.256;7.534;2023-03-31T04:53:26;86462.59;;;12.79;44.20
43838;BME280;65998;46.256;7.534;2023-03-31T04:55:55;86457.72;;;12.82;44.06
43838;BME280;65998;46.256;7.534;2023-03-31T04:58:20;86460.53;;;12.80;44.25
43838;BME280;65998;46.256;7.534;2023-03-31T05:00:46;86453.66;;;12.79;43.90
43838;BME280;65998;46.256;7.534;2023-03-31T05:03:12;86452.97;;;12.78;44.21
43838;BME280;65998;46.256;7.534;2023-03-31T05:05:38;86464.00;;;12.78;44.33
43838;BME280;65998;46.256;7.534;2023-03-31T05:08:04;86468.78;;;12.80;44.09
43838;BME280;65998;46.256;7.534;2023-03-31T05:10:30;86459.84;;;12.79;44.19
43838;BME280;65998;46.256;7.534;2023-03-31T05:12:56;86450.91;;;12.79;44.07
43838;BME280;65998;46.256;7.534;2023-03-31T05:15:22;86432.31;;;12.77;44.29
43838;BME280;65998;46.256;7.534;2023-03-31T05:17:48;86439.91;;;12.77;44.25
43838;BME280;65998;46.256;7.534;2023-03-31T05:20:13;86439.91;;;12.77;44.21
43838;BME280;65998;46.256;7.534;2023-03-31T05:22:40;86449.53;;;12.78;44.33
43838;BME280;65998;46.256;7.534;2023-03-31T05:25:07;86447.47;;;12.78;44.10
43838;BME280;65998;46.256;7.534;2023-03-31T05:27:34;86435.75;;;12.78;44.13
43838;BME280;65998;46.256;7.534;2023-03-31T05:30:01;86429.56;;;12.77;44.37
43838;BME280;65998;46.256;7.534;2023-03-31T05:32:27;86428.91;;;12.77;44.56
43838;BME280;65998;46.256;7.534;2023-03-31T05:34:54;86433.72;;;12.76;44.40
43838;BME280;65998;46.256;7.534;2023-03-31T05:37:22;86444.72;;;12.78;44.20
43838;BME280;65998;46.256;7.534;2023-03-31T05:39:48;86442.78;;;12.73;44.34
43838;BME280;65998;46.256;7.534;2023-03-31T05:42:14;86436.50;;;12.76;44.25
43838;BME280;65998;46.256;7.534;2023-03-31T05:44:40;86439.25;;;12.76;44.37
43838;BME280;65998;46.256;7.534;2023-03-31T05:47:06;86435.13;;;12.75;44.16
43838;BME280;65998;46.256;7.534;2023-03-31T05:49:32;86436.53;;;12.74;44.13
43838;BME280;65998;46.256;7.534;2023-03-31T05:51:58;86446.16;;;12.75;44.37
43838;BME280;65998;46.256;7.534;2023-03-31T05:54:24;86443.41;;;12.75;44.42
43838;BME280;65998;46.256;7.534;2023-03-31T05:56:49;86443.41;;;12.75;44.26
43838;BME280;65998;46.256;7.534;2023-03-31T05:59:15;86455.16;;;12.74;44.35
43838;BME280;65998;46.256;7.534;2023-03-31T06:01:41;86447.56;;;12.74;44.15
43838;BME280;65998;46.256;7.534;2023-03-31T06:04:07;86443.47;;;12.73;44.34
43838;BME280;65998;46.256;7.534;2023-03-31T06:06:32;86435.19;;;12.73;44.08
43838;BME280;65998;46.256;7.534;2023-03-31T06:09:01;86436.53;;;12.74;44.41
43838;BME280;65998;46.256;7.534;2023-03-31T06:11:27;86426.94;;;12.73;44.19
43838;BME280;65998;46.256;7.534;2023-03-31T06:13:53;86424.91;;;12.72;44.51
43838;BME280;65998;46.256;7.534;2023-03-31T06:16:19;86412.53;;;12.71;44.17
43838;BME280;65998;46.256;7.534;2023-03-31T06:18:45;86400.09;;;12.72;44.44
43838;BME280;65998;46.256;7.534;2023-03-31T06:21:16;86384.13;;;12.76;44.07
43838;BME280;65998;46.256;7.534;2023-03-31T06:23:42;86380.72;;;12.74;44.41
43838;BME280;65998;46.256;7.534;2023-03-31T06:26:17;86351.69;;;12.77;44.26
43838;BME280;65998;46.256;7.534;2023-03-31T06:28:44;86371.78;;;12.73;44.35
43838;BME280;65998;46.256;7.534;2023-03-31T06:31:14;86360.03;;;12.75;44.37
43838;BME280;65998;46.256;7.534;2023-03-31T06:33:41;86349.06;;;12.73;44.47
43838;BME280;65998;46.256;7.534;2023-03-31T06:36:09;86335.22;;;12.75;44.18
43838;BME280;65998;46.256;7.534;2023-03-31T06:38:36;86342.19;;;12.72;44.15
43838;BME280;65998;46.256;7.534;2023-03-31T06:41:04;86355.97;;;12.72;44.51
43838;BME280;65998;46.256;7.534;2023-03-31T06:43:31;86344.28;;;12.71;44.34
43838;BME280;65998;46.256;7.534;2023-03-31T06:45:56;86339.50;;;12.70;44.30
43838;BME280;65998;46.256;7.534;2023-03-31T06:48:24;86341.47;;;12.73;44.61
43838;BME280;65998;46.256;7.534;2023-03-31T06:50:51;86344.97;;;12.72;44.33
43838;BME280;65998;46.256;7.534;2023-03-31T06:53:17;86357.44;;;12.69;44.15
43838;BME280;65998;46.256;7.534;2023-03-31T06:55:43;86358.19;;;12.67;44.23
43838;BME280;65998;46.256;7.534;2023-03-31T06:58:09;86364.31;;;12.70;44.27
43838;BME280;65998;46.256;7.534;2023-03-31T07:00:35;86352.59;;;12.69;44.52
43838;BME280;65998;46.256;7.534;2023-03-31T07:03:02;86358.75;;;12.72;44.49
43838;BME280;65998;46.256;7.534;2023-03-31T07:05:29;86365.66;;;12.71;44.34
43838;BME280;65998;46.256;7.534;2023-03-31T07:07:58;86375.22;;;12.74;44.47
43838;BME280;65998;46.256;7.534;2023-03-31T07:10:26;86380.78;;;12.72;44.23
43838;BME280;65998;46.256;7.534;2023-03-31T07:12:52;86370.56;;;12.68;44.38
43838;BME280;65998;46.256;7.534;2023-03-31T07:15:18;86381.53;;;12.70;44.43
43838;BME280;65998;46.256;7.534;2023-03-31T07:17:44;86384.34;;;12.68;44.63
43838;BME280;65998;46.256;7.534;2023-03-31T07:20:12;86376.00;;;12.70;44.31
43838;BME280;65998;46.256;7.534;2023-03-31T07:22:38;86390.56;;;12.67;44.21
43838;BME280;65998;46.256;7.534;2023-03-31T07:25:04;86387.81;;;12.67;44.32
43838;BME280;65998;46.256;7.534;2023-03-31T07:27:30;86374.03;;;12.67;44.09
43838;BME280;65998;46.256;7.534;2023-03-31T07:29:56;86377.47;;;12.67;44.50
43838;BME280;65998;46.256;7.534;2023-03-31T07:32:22;86378.16;;;12.68;44.14
43838;BME280;65998;46.256;7.534;2023-03-31T07:34:48;86368.53;;;12.67;44.42
43838;BME280;65998;46.256;7.534;2023-03-31T07:37:14;86387.81;;;12.67;44.25
43838;BME280;65998;46.256;7.534;2023-03-31T07:39:39;86397.50;;;12.66;44.24
43838;BME280;65998;46.256;7.534;2023-03-31T07:42:05;86374.78;;;12.65;44.50
43838;BME280;65998;46.256;7.534;2023-03-31T07:44:35;86385.00;;;12.69;44.21
43838;BME280;65998;46.256;7.534;2023-03-31T07:47:01;86373.41;;;12.64;44.27
43838;BME280;65998;46.256;7.534;2023-03-31T07:49:27;86375.50;;;12.64;44.53
43838;BME280;65998;46.256;7.534;2023-03-31T07:51:53;86394.06;;;12.65;44.52
43838;BME280;65998;46.256;7.534;2023-03-31T07:54:19;86384.44;;;12.64;44.47
43838;BME280;65998;46.256;7.534;2023-03-31T07:56:44;86389.97;;;12.64;44.26
43838;BME280;65998;46.256;7.534;2023-03-31T07:59:10;86385.78;;;12.65;44.37
43838;BME280;65998;46.256;7.534;2023-03-31T08:01:36;86381.69;;;12.64;44.46
43838;BME280;65998;46.256;7.534;2023-03-31T08:04:02;86380.34;;;12.63;44.29
43838;BME280;65998;46.256;7.534;2023-03-31T08:06:28;86376.91;;;12.63;44.25
43838;BME280;65998;46.256;7.534;2023-03-31T08:08:53;86359.63;;;12.64;44.37
43838;BME280;65998;46.256;7.534;2023-03-31T08:11:19;86352.78;;;12.63;44.58
43838;BME280;65998;46.256;7.534;2023-03-31T08:13:45;86335.56;;;12.63;44.58
43838;BME280;65998;46.256;7.534;2023-03-31T08:16:12;86306.66;;;12.62;44.26
43838;BME280;65998;46.256;7.534;2023-03-31T08:18:37;86294.22;;;12.63;44.53
43838;BME280;65998;46.256;7.534;2023-03-31T08:21:03;86284.59;;;12.62;44.19
43838;BME280;65998;46.256;7.534;2023-03-31T08:23:29;86272.91;;;12.61;44.32
43838;BME280;65998;46.256;7.534;2023-03-31T08:26:15;86269.28;;;12.67;44.44
43838;BME280;65998;46.256;7.534;2023-03-31T08:28:41;86264.63;;;12.61;44.64
43838;BME280;65998;46.256;7.534;2023-03-31T08:31:07;86261.81;;;12.63;44.56
43838;BME280;65998;46.256;7.534;2023-03-31T08:33:33;86250.19;;;12.61;44.56
43838;BME280;65998;46.256;7.534;2023-03-31T08:36:03;86250.78;;;12.63;44.62
43838;BME280;65998;46.256;7.534;2023-03-31T08:38:30;86263.28;;;12.60;44.34
43838;BME280;65998;46.256;7.534;2023-03-31T08:41:00;86267.94;;;12.66;44.40
43838;BME280;65998;46.256;7.534;2023-03-31T08:43:33;86255.50;;;12.67;44.39
43838;BME280;65998;46.256;7.534;2023-03-31T08:46:03;86280.38;;;12.65;44.54
43838;BME280;65998;46.256;7.534;2023-03-31T08:48:34;86287.97;;;12.64;44.27
43838;BME280;65998;46.256;7.534;2023-03-31T08:51:13;86301.69;;;12.66;44.47
43838;BME280;65998;46.256;7.534;2023-03-31T08:53:44;86324.47;;;12.65;44.52
43838;BME280;65998;46.256;7.534;2023-03-31T08:56:18;86330.66;;;12.65;44.54
43838;BME280;65998;46.256;7.534;2023-03-31T08:58:48;86334.16;;;12.64;44.68
43838;BME280;65998;46.256;7.534;2023-03-31T09:09:22;86354.13;;;12.64;44.62
43838;BME280;65998;46.256;7.534;2023-03-31T09:11:53;86361.72;;;12.64;44.42
43838;BME280;65998;46.256;7.534;2023-03-31T09:14:43;86362.41;;;12.64;44.37
43838;BME280;65998;46.256;7.534;2023-03-31T09:17:23;86365.81;;;12.65;44.39
43838;BME280;65998;46.256;7.534;2023-03-31T09:19:54;86346.59;;;12.63;44.58
43838;BME280;65998;46.256;7.534;2023-03-31T09:22:27;86336.91;;;12.64;44.34
43838;BME280;65998;46.256;7.534;2023-03-31T09:25:02;86354.13;;;12.64;44.55
43838;BME280;65998;46.256;7.534;2023-03-31T09:27:31;86353.50;;;12.62;44.56
43838;BME280;65998;46.256;7.534;2023-03-31T09:30:08;86353.44;;;12.64;44.54
43838;BME280;65998;46.256;7.534;2023-03-31T09:32:37;86344.56;;;12.61;44.27
43838;BME280;65998;46.256;7.534;2023-03-31T09:35:20;86334.84;;;12.64;44.48
43838;BME280;65998;46.256;7.534;2023-03-31T09:37:48;86324.59;;;12.61;44.51
43838;BME280;65998;46.256;7.534;2023-03-31T09:40:23;86301.13;;;12.62;44.21
43838;BME280;65998;46.256;7.534;2023-03-31T09:42:55;86302.56;;;12.61;44.46
43838;BME280;65998;46.256;7.534;2023-03-31T09:45:23;86304.00;;;12.58;44.76
43838;BME280;65998;46.256;7.534;2023-03-31T09:47:54;86305.25;;;12.63;44.39
43838;BME280;65998;46.256;7.534;2023-03-31T09:50:22;86305.38;;;12.59;44.63
43838;BME280;65998;46.256;7.534;2023-03-31T09:52:52;86280.63;;;12.57;44.73
43838;BME280;65998;46.256;7.534;2023-03-31T09:55:24;86280.50;;;12.61;44.66
43838;BME280;65998;46.256;7.534;2023-03-31T09:57:51;86295.81;;;12.56;44.52
43838;BME280;65998;46.256;7.534;2023-03-31T10:00:20;86289.50;;;12.59;44.65
43838;BME280;65998;46.256;7.534;2023-03-31T10:02:56;86293.59;;;12.60;44.55
43838;BME280;65998;46.256;7.534;2023-03-31T10:05:37;86295.69;;;12.60;44.49
43838;BME280;65998;46.256;7.534;2023-03-31T10:10:52;86261.94;;;12.59;44.36
43838;BME280;65998;46.256;7.534;2023-03-31T10:13:22;86250.91;;;12.59;44.38
43838;BME280;65998;46.256;7.534;2023-03-31T10:15:54;86247.47;;;12.59;44.31
43838;BME280;65998;46.256;7.534;2023-03-31T10:18:22;86247.53;;;12.57;44.68
43838;BME280;65998;46.256;7.534;2023-03-31T10:20:57;86233.09;;;12.56;44.50
43838;BME280;65998;46.256;7.534;2023-03-31T10:23:28;86239.22;;;12.59;44.65
43838;BME280;65998;46.256;7.534;2023-03-31T10:25:55;86235.19;;;12.56;44.71
43838;BME280;65998;46.256;7.534;2023-03-31T10:28:21;86225.63;;;12.53;44.49
43838;BME280;65998;46.256;7.534;2023-03-31T10:30:55;86235.19;;;12.56;44.53
43838;BME280;65998;46.256;7.534;2023-03-31T10:33:24;86242.09;;;12.55;44.46
43838;BME280;65998;46.256;7.534;2023-03-31T10:36:21;86236.47;;;12.59;44.72
43838;BME280;65998;46.256;7.534;2023-03-31T10:38:50;86219.31;;;12.56;44.45
43838;BME280;65998;46.256;7.534;2023-03-31T10:41:19;86218.63;;;12.56;44.61
43838;BME280;65998;46.256;7.534;2023-03-31T10:43:53;86204.13;;;12.57;44.54
43838;BME280;65998;46.256;7.534;2023-03-31T10:46:20;86203.56;;;12.53;44.62
43838;BME280;65998;46.256;7.534;2023-03-31T10:51:57;86219.97;;;12.57;44.87
43838;BME280;65998;46.256;7.534;2023-03-31T10:54:24;86209.03;;;12.55;44.63
43838;BME280;65998;46.256;7.534;2023-03-31T10:56:51;86221.44;;;12.54;44.68
43838;BME280;65998;46.256;7.534;2023-03-31T10:59:41;86222.06;;;12.56;44.59
43838;BME280;65998;46.256;7.534;2023-03-31T11:10:59;86219.31;;;12.56;44.52
43838;BME280;65998;46.256;7.534;2023-03-31T11:13:37;86204.31;;;12.51;44.74
43838;BME280;65998;46.256;7.534;2023-03-31T11:27:05;86164.94;;;12.55;44.24
43838;BME280;65998;46.256;7.534;2023-03-31T11:29:49;86164.94;;;12.55;44.41
43838;BME280;65998;46.256;7.534;2023-03-31T11:32:44;86171.13;;;12.55;44.52
43838;BME280;65998;46.256;7.534;2023-03-31T11:35:40;86167.69;;;12.55;44.59
43838;BME280;65998;46.256;7.534;2023-03-31T11:38:34;86163.53;;;12.56;44.54
43838;BME280;65998;46.256;7.534;2023-03-31T11:41:21;86139.47;;;12.54;44.70
43838;BME280;65998;46.256;7.534;2023-03-31T11:44:01;86136.09;;;12.52;44.43
43838;BME280;65998;46.256;7.534;2023-03-31T11:49:40;86116.75;;;12.54;44.57
43838;BME280;65998;46.256;7.534;2023-03-31T11:52:16;86107.81;;;12.53;44.63
43838;BME280;65998;46.256;7.534;2023-03-31T11:54:55;86099.53;;;12.53;44.45
43838;BME280;65998;46.256;7.534;2023-03-31T11:59:55;86091.25;;;12.53;44.33
43838;BME280;65998;46.256;7.534;2023-03-31T12:05:20;86074.78;;;12.51;44.46
43838;BME280;65998;46.256;7.534;2023-03-31T12:07:57;86061.63;;;12.54;44.46
43838;BME280;65998;46.256;7.534;2023-03-31T12:10:36;86071.31;;;12.53;44.37
43838;BME280;65998;46.256;7.534;2023-03-31T12:16:13;86083.00;;;12.53;44.50
43838;BME280;65998;46.256;7.534;2023-03-31T12:19:05;86083.00;;;12.53;44.52
43838;BME280;65998;46.256;7.534;2023-03-31T12:21:34;86097.50;;;12.52;44.83
43838;BME280;65998;46.256;7.534;2023-03-31T12:24:03;86101.78;;;12.46;44.74
43838;BME280;65998;46.256;7.534;2023-03-31T12:29:33;86122.97;;;12.52;44.64
43838;BME280;65998;46.256;7.534;2023-03-31T12:32:13;86105.09;;;12.51;44.64
43838;BME280;65998;46.256;7.534;2023-03-31T12:35:03;86105.78;;;12.52;44.49
43838;BME280;65998;46.256;7.534;2023-03-31T12:43:55;86129.84;;;12.53;44.60
43838;BME280;65998;46.256;7.534;2023-03-31T12:50:15;86131.94;;;12.53;44.55
43838;BME280;65998;46.256;7.534;2023-03-31T12:52:59;86140.25;;;12.51;44.50
43838;BME280;65998;46.256;7.534;2023-03-31T13:06:02;86076.97;;;12.46;44.46
43838;BME280;65998;46.256;7.534;2023-03-31T13:08:48;86098.91;;;12.51;44.32
43838;BME280;65998;46.256;7.534;2023-03-31T13:11:15;86097.69;;;12.45;44.61
43838;BME280;65998;46.256;7.534;2023-03-31T13:16:42;86079.06;;;12.46;44.46
43838;BME280;65998;46.256;7.534;2023-03-31T13:19:11;86082.44;;;12.49;44.73
43838;BME280;65998;46.256;7.534;2023-03-31T13:25:44;86108.53;;;12.52;44.61
43838;BME280;65998;46.256;7.534;2023-03-31T13:28:13;86125.81;;;12.50;44.39
43838;BME280;65998;46.256;7.534;2023-03-31T13:35:38;86131.34;;;12.48;44.28
43838;BME280;65998;46.256;7.534;2023-03-31T13:38:29;86114.09;;;12.50;44.59
43838;BME280;65998;46.256;7.534;2023-03-31T13:41:22;86134.75;;;12.51;44.61
43838;BME280;65998;46.256;7.534;2023-03-31T13:44:16;86111.28;;;12.52;44.63
43838;BME280;65998;46.256;7.534;2023-03-31T13:52:57;86108.03;;;12.45;44.43
43838;BME280;65998;46.256;7.534;2023-03-31T13:58:37;86096.16;;;12.51;44.54
43838;BME280;65998;46.256;7.534;2023-03-31T14:06:36;86110.78;;;12.45;44.68
43838;BME280;65998;46.256;7.534;2023-03-31T14:09:09;86135.47;;;12.49;44.71
43838;BME280;65998;46.256;7.534;2023-03-31T14:11:38;86141.09;;;12.45;44.68
43838;BME280;65998;46.256;7.534;2023-03-31T14:14:14;86154.03;;;12.51;44.65
43838;BME280;65998;46.256;7.534;2023-03-31T14:17:00;86131.31;;;12.50;44.47
43838;BME280;65998;46.256;7.534;2023-03-31T14:19:49;86109.28;;;12.50;44.62
43838;BME280;65998;46.256;7.534;2023-03-31T14:22:34;86113.44;;;12.49;44.51
43838;BME280;65998;46.256;7.534;2023-03-31T14:28:03;86133.41;;;12.50;44.47
43838;BME280;65998;46.256;7.534;2023-03-31T14:33:35;86097.56;;;12.50;44.37
43838;BME280;65998;46.256;7.534;2023-03-31T14:38:44;86065.28;;;12.46;44.83
43838;BME280;65998;46.256;7.534;2023-03-31T14:41:28;86065.22;;;12.48;44.72
43838;BME280;65998;46.256;7.534;2023-03-31T14:43:57;86050.78;;;12.47;44.67
43838;BME280;65998;46.256;7.534;2023-03-31T14:46:25;86038.47;;;12.44;44.69
43838;BME280;65998;46.256;7.534;2023-03-31T14:48:51;86025.44;;;12.43;44.68
43838;BME280;65998;46.256;7.534;2023-03-31T14:51:28;86014.28;;;12.47;44.75
43838;BME280;65998;46.256;7.534;2023-03-31T14:53:58;86006.00;;;12.47;44.51
43838;BME280;65998;46.256;7.534;2023-03-31T14:56:34;86005.97;;;12.49;44.36
43838;BME280;65998;46.256;7.534;2023-03-31T14:59:03;85994.31;;;12.46;44.43
43838;BME280;65998;46.256;7.534;2023-03-31T15:01:32;85995.00;;;12.47;44.64
43838;BME280;65998;46.256;7.534;2023-03-31T15:04:01;85988.81;;;12.46;44.68
43838;BME280;65998;46.256;7.534;2023-03-31T15:06:30;85985.44;;;12.44;44.56
43838;BME280;65998;46.256;7.534;2023-03-31T15:08:56;85990.28;;;12.43;44.54
43838;BME280;65998;46.256;7.534;2023-03-31T15:11:23;86004.75;;;12.44;44.58
43838;BME280;65998;46.256;7.534;2023-03-31T15:13:50;85992.91;;;12.47;44.69
43838;BME280;65998;46.256;7.534;2023-03-31T15:18:56;85988.78;;;12.49;44.58
43838;BME280;65998;46.256;7.534;2023-03-31T15:21:29;86011.50;;;12.49;44.70
43838;BME280;65998;46.256;7.534;2023-03-31T15:23:56;86026.03;;;12.45;44.72
43838;BME280;65998;46.256;7.534;2023-03-31T15:26:30;86011.50;;;12.49;44.50
43838;BME280;65998;46.256;7.534;2023-03-31T15:29:05;86008.72;;;12.49;44.80
43838;BME280;65998;46.256;7.534;2023-03-31T15:31:32;86008.91;;;12.43;44.74
43838;BME280;65998;46.256;7.534;2023-03-31T15:33:58;86005.41;;;12.44;44.68
43838;BME280;65998;46.256;7.534;2023-03-31T15:36:26;86004.59;;;12.48;44.68
43838;BME280;65998;46.256;7.534;2023-03-31T15:38:58;85994.28;;;12.49;44.70